OMAD/AZI METAR and TAF weather

Enter ICAO airport designator
Station Type Date Time Source
OMAD METAR 2019/08/25 08:00 UTC NOAA

OMAD 250800Z VRB04KT CAVOK 43/10 Q1002 BECMG 29010KT


Station Type Date Time Source
OMAD Decoded METAR 2019/08/25 08:00 UTC NOAA

Station name not available
Aug 25, 2019 - 04:00 AM EDT / 2019.08.25 0800 UTC
Wind: Variable at 5 MPH (4 KT):0
Visibility: greater than 7 mile(s):0
Temperature: 109 F (43 C)
Dew Point: 50 F (10 C)
Relative Humidity: 14%
Pressure (altimeter): 29.59 in. Hg (1002 hPa)
ob: OMAD 250800Z VRB04KT CAVOK 43/10 Q1002 BECMG 29010KT
cycle: 8

Station Type Date Time Source
OMAD TAF 2019/08/25 06:03 UTC NOAA

TAF TAF OMAD 250500Z 2506/2612 21006KT 8000 NSC
BECMG 2508/2510 32012KT
BECMG 2516/2518 07005KT
BECMG 2601/2603 15004KT
BECMG 2607/2609 32012KT

Example: see airport list